sensor_id;sensor_type;location;lat;lon;timestamp;P1;durP1;ratioP1;P2;durP2;ratioP2
15273;SDS011;7738;49.532;11.156;2022-12-15T00:00:37;31.60;;;15.47;;
15273;SDS011;7738;49.532;11.156;2022-12-15T00:03:20;30.17;;;15.50;;
15273;SDS011;7738;49.532;11.156;2022-12-15T00:06:03;33.63;;;16.17;;
15273;SDS011;7738;49.532;11.156;2022-12-15T00:08:46;34.17;;;16.57;;
15273;SDS011;7738;49.532;11.156;2022-12-15T00:11:29;33.63;;;15.43;;
15273;SDS011;7738;49.532;11.156;2022-12-15T00:14:14;27.13;;;13.77;;
15273;SDS011;7738;49.532;11.156;2022-12-15T00:16:57;33.00;;;14.10;;
15273;SDS011;7738;49.532;11.156;2022-12-15T00:19:39;23.87;;;12.70;;
15273;SDS011;7738;49.532;11.156;2022-12-15T00:22:22;32.47;;;15.80;;
15273;SDS011;7738;49.532;11.156;2022-12-15T00:25:05;35.63;;;14.60;;
15273;SDS011;7738;49.532;11.156;2022-12-15T00:27:48;24.37;;;12.83;;
15273;SDS011;7738;49.532;11.156;2022-12-15T00:30:33;28.73;;;13.70;;
15273;SDS011;7738;49.532;11.156;2022-12-15T00:33:16;29.80;;;14.80;;
15273;SDS011;7738;49.532;11.156;2022-12-15T00:35:59;26.00;;;13.57;;
15273;SDS011;7738;49.532;11.156;2022-12-15T00:38:41;34.07;;;14.73;;
15273;SDS011;7738;49.532;11.156;2022-12-15T00:41:13;27.20;;;14.27;;
15273;SDS011;7738;49.532;11.156;2022-12-15T00:43:44;28.33;;;14.30;;
15273;SDS011;7738;49.532;11.156;2022-12-15T00:46:17;28.70;;;13.63;;
15273;SDS011;7738;49.532;11.156;2022-12-15T00:49:00;24.13;;;14.13;;
15273;SDS011;7738;49.532;11.156;2022-12-15T00:51:50;28.83;;;13.33;;
15273;SDS011;7738;49.532;11.156;2022-12-15T00:54:33;24.87;;;14.33;;
15273;SDS011;7738;49.532;11.156;2022-12-15T00:57:15;26.23;;;15.30;;
15273;SDS011;7738;49.532;11.156;2022-12-15T00:59:58;32.83;;;14.40;;
15273;SDS011;7738;49.532;11.156;2022-12-15T01:02:43;32.67;;;15.23;;
15273;SDS011;7738;49.532;11.156;2022-12-15T01:05:26;28.77;;;13.53;;
15273;SDS011;7738;49.532;11.156;2022-12-15T01:08:09;27.67;;;14.33;;
15273;SDS011;7738;49.532;11.156;2022-12-15T01:10:52;28.93;;;15.60;;
15273;SDS011;7738;49.532;11.156;2022-12-15T01:13:35;24.57;;;13.40;;
15273;SDS011;7738;49.532;11.156;2022-12-15T01:16:17;27.07;;;13.93;;
15273;SDS011;7738;49.532;11.156;2022-12-15T01:19:02;25.90;;;13.67;;
15273;SDS011;7738;49.532;11.156;2022-12-15T01:21:47;33.33;;;14.67;;
15273;SDS011;7738;49.532;11.156;2022-12-15T01:24:18;27.30;;;14.67;;
15273;SDS011;7738;49.532;11.156;2022-12-15T01:26:48;21.97;;;13.03;;
15273;SDS011;7738;49.532;11.156;2022-12-15T01:29:18;26.40;;;13.13;;
15273;SDS011;7738;49.532;11.156;2022-12-15T01:31:48;21.67;;;12.00;;
15273;SDS011;7738;49.532;11.156;2022-12-15T01:34:21;18.47;;;12.37;;
15273;SDS011;7738;49.532;11.156;2022-12-15T01:36:51;24.07;;;12.70;;
15273;SDS011;7738;49.532;11.156;2022-12-15T01:39:21;29.43;;;13.90;;
15273;SDS011;7738;49.532;11.156;2022-12-15T01:42:12;20.93;;;12.83;;
15273;SDS011;7738;49.532;11.156;2022-12-15T01:44:40;29.73;;;13.70;;
15273;SDS011;7738;49.532;11.156;2022-12-15T01:47:10;24.17;;;12.33;;
15273;SDS011;7738;49.532;11.156;2022-12-15T01:49:44;29.03;;;13.33;;
15273;SDS011;7738;49.532;11.156;2022-12-15T01:52:16;30.47;;;14.60;;
15273;SDS011;7738;49.532;11.156;2022-12-15T01:54:54;30.00;;;14.50;;
15273;SDS011;7738;49.532;11.156;2022-12-15T01:57:26;26.90;;;13.47;;
15273;SDS011;7738;49.532;11.156;2022-12-15T02:00:03;24.47;;;12.23;;
15273;SDS011;7738;49.532;11.156;2022-12-15T02:02:34;23.83;;;13.20;;
15273;SDS011;7738;49.532;11.156;2022-12-15T02:05:09;30.07;;;14.27;;
15273;SDS011;7738;49.532;11.156;2022-12-15T02:07:39;31.00;;;15.20;;
15273;SDS011;7738;49.532;11.156;2022-12-15T02:10:10;32.77;;;16.77;;
15273;SDS011;7738;49.532;11.156;2022-12-15T02:12:42;25.73;;;14.17;;
15273;SDS011;7738;49.532;11.156;2022-12-15T02:15:18;26.43;;;12.73;;
15273;SDS011;7738;49.532;11.156;2022-12-15T02:17:50;24.33;;;12.53;;
15273;SDS011;7738;49.532;11.156;2022-12-15T02:23:31;27.00;;;15.40;;
15273;SDS011;7738;49.532;11.156;2022-12-15T02:26:18;33.83;;;14.60;;
15273;SDS011;7738;49.532;11.156;2022-12-15T02:28:51;29.80;;;14.10;;
15273;SDS011;7738;49.532;11.156;2022-12-15T02:31:27;26.97;;;13.93;;
15273;SDS011;7738;49.532;11.156;2022-12-15T02:34:18;28.47;;;14.53;;
15273;SDS011;7738;49.532;11.156;2022-12-15T02:39:22;26.20;;;14.60;;
15273;SDS011;7738;49.532;11.156;2022-12-15T02:41:53;31.10;;;14.13;;
15273;SDS011;7738;49.532;11.156;2022-12-15T02:44:24;28.43;;;14.47;;
15273;SDS011;7738;49.532;11.156;2022-12-15T02:47:02;32.47;;;15.03;;
15273;SDS011;7738;49.532;11.156;2022-12-15T02:49:40;33.13;;;16.37;;
15273;SDS011;7738;49.532;11.156;2022-12-15T02:54:56;25.60;;;13.73;;
15273;SDS011;7738;49.532;11.156;2022-12-15T02:57:36;28.93;;;14.07;;
15273;SDS011;7738;49.532;11.156;2022-12-15T03:00:11;32.23;;;16.10;;
15273;SDS011;7738;49.532;11.156;2022-12-15T03:02:45;33.77;;;17.33;;
15273;SDS011;7738;49.532;11.156;2022-12-15T03:07:47;30.33;;;15.77;;
15273;SDS011;7738;49.532;11.156;2022-12-15T03:10:18;32.70;;;15.30;;
15273;SDS011;7738;49.532;11.156;2022-12-15T03:12:50;37.87;;;18.43;;
15273;SDS011;7738;49.532;11.156;2022-12-15T03:15:20;36.57;;;17.00;;
15273;SDS011;7738;49.532;11.156;2022-12-15T03:17:58;35.37;;;17.47;;
15273;SDS011;7738;49.532;11.156;2022-12-15T03:20:28;29.73;;;15.67;;
15273;SDS011;7738;49.532;11.156;2022-12-15T03:22:58;32.90;;;16.63;;
15273;SDS011;7738;49.532;11.156;2022-12-15T03:25:29;33.33;;;16.20;;
15273;SDS011;7738;49.532;11.156;2022-12-15T03:27:59;33.83;;;16.53;;
15273;SDS011;7738;49.532;11.156;2022-12-15T03:30:29;37.77;;;18.93;;
15273;SDS011;7738;49.532;11.156;2022-12-15T03:33:02;30.07;;;15.23;;
15273;SDS011;7738;49.532;11.156;2022-12-15T03:35:34;29.13;;;15.45;;
15273;SDS011;7738;49.532;11.156;2022-12-15T03:38:04;30.27;;;14.10;;
15273;SDS011;7738;49.532;11.156;2022-12-15T03:40:34;25.33;;;13.60;;
15273;SDS011;7738;49.532;11.156;2022-12-15T03:43:04;24.87;;;14.27;;
15273;SDS011;7738;49.532;11.156;2022-12-15T03:45:34;27.00;;;13.60;;
15273;SDS011;7738;49.532;11.156;2022-12-15T03:48:07;26.27;;;14.70;;
15273;SDS011;7738;49.532;11.156;2022-12-15T03:50:38;35.20;;;15.53;;
15273;SDS011;7738;49.532;11.156;2022-12-15T03:53:08;32.40;;;16.80;;
15273;SDS011;7738;49.532;11.156;2022-12-15T03:55:38;29.33;;;15.00;;
15273;SDS011;7738;49.532;11.156;2022-12-15T03:58:09;34.73;;;16.53;;
15273;SDS011;7738;49.532;11.156;2022-12-15T04:00:39;27.53;;;14.63;;
15273;SDS011;7738;49.532;11.156;2022-12-15T04:03:12;34.53;;;15.97;;
15273;SDS011;7738;49.532;11.156;2022-12-15T04:05:42;27.50;;;13.43;;
15273;SDS011;7738;49.532;11.156;2022-12-15T04:08:12;27.23;;;15.93;;
15273;SDS011;7738;49.532;11.156;2022-12-15T04:13:07;26.47;;;13.10;;
15273;SDS011;7738;49.532;11.156;2022-12-15T04:15:39;35.00;;;16.87;;
15273;SDS011;7738;49.532;11.156;2022-12-15T04:18:09;27.90;;;16.33;;
15273;SDS011;7738;49.532;11.156;2022-12-15T04:20:39;31.93;;;16.37;;
15273;SDS011;7738;49.532;11.156;2022-12-15T04:23:07;26.63;;;15.20;;
15273;SDS011;7738;49.532;11.156;2022-12-15T04:25:38;30.97;;;18.23;;
15273;SDS011;7738;49.532;11.156;2022-12-15T04:28:23;40.37;;;16.47;;
15273;SDS011;7738;49.532;11.156;2022-12-15T04:31:06;30.63;;;15.30;;
15273;SDS011;7738;49.532;11.156;2022-12-15T04:33:50;35.00;;;15.88;;
15273;SDS011;7738;49.532;11.156;2022-12-15T04:36:34;29.88;;;14.70;;
15273;SDS011;7738;49.532;11.156;2022-12-15T04:39:19;33.55;;;16.63;;
15273;SDS011;7738;49.532;11.156;2022-12-15T04:42:01;29.97;;;14.77;;
15273;SDS011;7738;49.532;11.156;2022-12-15T04:44:47;31.27;;;16.10;;
15273;SDS011;7738;49.532;11.156;2022-12-15T04:47:30;30.50;;;15.47;;
15273;SDS011;7738;49.532;11.156;2022-12-15T04:50:13;38.03;;;15.47;;
15273;SDS011;7738;49.532;11.156;2022-12-15T04:53:05;39.30;;;16.77;;
15273;SDS011;7738;49.532;11.156;2022-12-15T04:55:48;23.00;;;15.03;;
15273;SDS011;7738;49.532;11.156;2022-12-15T04:58:30;26.77;;;15.73;;
15273;SDS011;7738;49.532;11.156;2022-12-15T05:01:16;32.70;;;17.33;;
15273;SDS011;7738;49.532;11.156;2022-12-15T05:03:59;37.13;;;16.10;;
15273;SDS011;7738;49.532;11.156;2022-12-15T05:06:41;31.67;;;15.87;;
15273;SDS011;7738;49.532;11.156;2022-12-15T05:09:24;33.83;;;16.10;;
15273;SDS011;7738;49.532;11.156;2022-12-15T05:12:07;36.53;;;17.60;;
15273;SDS011;7738;49.532;11.156;2022-12-15T05:14:50;28.60;;;15.80;;
15273;SDS011;7738;49.532;11.156;2022-12-15T05:17:35;28.53;;;15.70;;
15273;SDS011;7738;49.532;11.156;2022-12-15T05:20:17;32.97;;;15.97;;
15273;SDS011;7738;49.532;11.156;2022-12-15T05:23:00;30.27;;;15.77;;
15273;SDS011;7738;49.532;11.156;2022-12-15T05:25:43;29.80;;;14.97;;
15273;SDS011;7738;49.532;11.156;2022-12-15T05:28:26;33.43;;;17.00;;
15273;SDS011;7738;49.532;11.156;2022-12-15T05:31:09;33.30;;;16.27;;
15273;SDS011;7738;49.532;11.156;2022-12-15T05:33:54;27.70;;;16.77;;
15273;SDS011;7738;49.532;11.156;2022-12-15T05:36:30;32.80;;;16.20;;
15273;SDS011;7738;49.532;11.156;2022-12-15T05:39:01;30.97;;;16.73;;
15273;SDS011;7738;49.532;11.156;2022-12-15T05:41:31;32.90;;;17.17;;
15273;SDS011;7738;49.532;11.156;2022-12-15T05:44:01;36.93;;;16.57;;
15273;SDS011;7738;49.532;11.156;2022-12-15T05:46:32;32.00;;;16.63;;
15273;SDS011;7738;49.532;11.156;2022-12-15T05:49:05;32.53;;;16.37;;
15273;SDS011;7738;49.532;11.156;2022-12-15T05:51:36;31.77;;;16.50;;
15273;SDS011;7738;49.532;11.156;2022-12-15T05:54:08;37.80;;;15.60;;
15273;SDS011;7738;49.532;11.156;2022-12-15T05:56:41;30.50;;;12.57;;
15273;SDS011;7738;49.532;11.156;2022-12-15T05:59:11;36.73;;;16.37;;
15273;SDS011;7738;49.532;11.156;2022-12-15T06:01:41;34.03;;;16.40;;
15273;SDS011;7738;49.532;11.156;2022-12-15T06:04:14;31.47;;;17.00;;
15273;SDS011;7738;49.532;11.156;2022-12-15T06:06:45;35.03;;;14.90;;
15273;SDS011;7738;49.532;11.156;2022-12-15T06:09:15;37.53;;;17.27;;
15273;SDS011;7738;49.532;11.156;2022-12-15T06:11:45;29.87;;;13.93;;
15273;SDS011;7738;49.532;11.156;2022-12-15T06:14:15;28.67;;;15.97;;
15273;SDS011;7738;49.532;11.156;2022-12-15T06:16:46;26.37;;;14.73;;
15273;SDS011;7738;49.532;11.156;2022-12-15T06:19:19;33.67;;;14.00;;
15273;SDS011;7738;49.532;11.156;2022-12-15T06:21:50;32.47;;;15.77;;
15273;SDS011;7738;49.532;11.156;2022-12-15T06:24:20;34.57;;;16.40;;
15273;SDS011;7738;49.532;11.156;2022-12-15T06:26:51;31.67;;;15.40;;
15273;SDS011;7738;49.532;11.156;2022-12-15T06:29:21;24.57;;;14.70;;
15273;SDS011;7738;49.532;11.156;2022-12-15T06:31:52;35.53;;;17.63;;
15273;SDS011;7738;49.532;11.156;2022-12-15T06:34:25;38.57;;;15.90;;
15273;SDS011;7738;49.532;11.156;2022-12-15T06:36:55;30.27;;;17.53;;
15273;SDS011;7738;49.532;11.156;2022-12-15T06:39:25;50.23;;;18.50;;
15273;SDS011;7738;49.532;11.156;2022-12-15T06:41:55;33.20;;;17.17;;
15273;SDS011;7738;49.532;11.156;2022-12-15T06:44:26;40.13;;;17.77;;
15273;SDS011;7738;49.532;11.156;2022-12-15T06:46:56;28.40;;;15.63;;
15273;SDS011;7738;49.532;11.156;2022-12-15T06:49:29;39.60;;;19.53;;
15273;SDS011;7738;49.532;11.156;2022-12-15T06:52:00;46.63;;;17.90;;
15273;SDS011;7738;49.532;11.156;2022-12-15T06:54:30;43.27;;;18.60;;
15273;SDS011;7738;49.532;11.156;2022-12-15T06:57:00;31.97;;;15.90;;
15273;SDS011;7738;49.532;11.156;2022-12-15T06:59:31;30.60;;;16.10;;
15273;SDS011;7738;49.532;11.156;2022-12-15T07:02:01;41.30;;;17.87;;
15273;SDS011;7738;49.532;11.156;2022-12-15T07:04:34;34.57;;;17.83;;
15273;SDS011;7738;49.532;11.156;2022-12-15T07:07:05;35.80;;;19.13;;
15273;SDS011;7738;49.532;11.156;2022-12-15T07:09:35;31.47;;;16.43;;
15273;SDS011;7738;49.532;11.156;2022-12-15T07:12:05;36.37;;;17.90;;
15273;SDS011;7738;49.532;11.156;2022-12-15T07:14:37;37.00;;;18.37;;
15273;SDS011;7738;49.532;11.156;2022-12-15T07:17:07;42.03;;;16.37;;
15273;SDS011;7738;49.532;11.156;2022-12-15T07:19:40;36.60;;;16.07;;
15273;SDS011;7738;49.532;11.156;2022-12-15T07:22:10;33.00;;;17.23;;
15273;SDS011;7738;49.532;11.156;2022-12-15T07:24:41;36.80;;;18.03;;
15273;SDS011;7738;49.532;11.156;2022-12-15T07:27:11;30.87;;;13.53;;
15273;SDS011;7738;49.532;11.156;2022-12-15T07:29:43;30.37;;;16.80;;
15273;SDS011;7738;49.532;11.156;2022-12-15T07:32:13;31.87;;;16.67;;
15273;SDS011;7738;49.532;11.156;2022-12-15T07:34:46;38.87;;;16.90;;
15273;SDS011;7738;49.532;11.156;2022-12-15T07:37:17;39.00;;;16.97;;
15273;SDS011;7738;49.532;11.156;2022-12-15T07:39:47;33.80;;;17.10;;
15273;SDS011;7738;49.532;11.156;2022-12-15T07:42:17;30.37;;;17.70;;
15273;SDS011;7738;49.532;11.156;2022-12-15T07:44:48;31.77;;;16.10;;
15273;SDS011;7738;49.532;11.156;2022-12-15T07:47:18;44.27;;;20.83;;
15273;SDS011;7738;49.532;11.156;2022-12-15T07:49:51;42.90;;;18.47;;
15273;SDS011;7738;49.532;11.156;2022-12-15T07:52:23;31.65;;;14.55;;
15273;SDS011;7738;49.532;11.156;2022-12-15T07:54:53;38.47;;;18.33;;
15273;SDS011;7738;49.532;11.156;2022-12-15T07:57:23;38.17;;;19.00;;
15273;SDS011;7738;49.532;11.156;2022-12-15T07:59:54;41.97;;;19.33;;
15273;SDS011;7738;49.532;11.156;2022-12-15T08:02:24;43.07;;;19.93;;
15273;SDS011;7738;49.532;11.156;2022-12-15T08:04:58;38.30;;;18.03;;
15273;SDS011;7738;49.532;11.156;2022-12-15T08:07:28;39.20;;;19.77;;
15273;SDS011;7738;49.532;11.156;2022-12-15T08:09:58;31.57;;;17.67;;
15273;SDS011;7738;49.532;11.156;2022-12-15T08:12:29;43.07;;;19.47;;
15273;SDS011;7738;49.532;11.156;2022-12-15T08:14:59;35.57;;;20.77;;
15273;SDS011;7738;49.532;11.156;2022-12-15T08:17:29;35.47;;;18.83;;
15273;SDS011;7738;49.532;11.156;2022-12-15T08:20:03;44.40;;;19.00;;
15273;SDS011;7738;49.532;11.156;2022-12-15T08:22:35;43.93;;;15.93;;
15273;SDS011;7738;49.532;11.156;2022-12-15T08:25:06;31.40;;;16.33;;
15273;SDS011;7738;49.532;11.156;2022-12-15T08:27:36;32.33;;;17.27;;
15273;SDS011;7738;49.532;11.156;2022-12-15T08:30:07;36.37;;;19.47;;
15273;SDS011;7738;49.532;11.156;2022-12-15T08:32:38;33.90;;;16.70;;
15273;SDS011;7738;49.532;11.156;2022-12-15T08:35:19;31.57;;;16.57;;
15273;SDS011;7738;49.532;11.156;2022-12-15T08:38:10;39.40;;;18.03;;
15273;SDS011;7738;49.532;11.156;2022-12-15T08:40:40;36.27;;;16.60;;
15273;SDS011;7738;49.532;11.156;2022-12-15T08:43:10;34.57;;;16.13;;
15273;SDS011;7738;49.532;11.156;2022-12-15T08:45:40;33.80;;;17.03;;
15273;SDS011;7738;49.532;11.156;2022-12-15T08:48:11;34.60;;;17.37;;
15273;SDS011;7738;49.532;11.156;2022-12-15T08:50:44;34.00;;;16.57;;
15273;SDS011;7738;49.532;11.156;2022-12-15T08:53:14;33.43;;;14.87;;
15273;SDS011;7738;49.532;11.156;2022-12-15T08:56:00;30.53;;;18.13;;
15273;SDS011;7738;49.532;11.156;2022-12-15T08:58:31;37.97;;;16.90;;
15273;SDS011;7738;49.532;11.156;2022-12-15T09:01:02;30.10;;;16.07;;
15273;SDS011;7738;49.532;11.156;2022-12-15T09:03:33;38.27;;;16.40;;
15273;SDS011;7738;49.532;11.156;2022-12-15T09:06:07;34.33;;;15.27;;
15273;SDS011;7738;49.532;11.156;2022-12-15T09:08:38;29.58;;;14.23;;
15273;SDS011;7738;49.532;11.156;2022-12-15T09:11:08;31.40;;;15.63;;
15273;SDS011;7738;49.532;11.156;2022-12-15T09:13:38;26.90;;;13.83;;
15273;SDS011;7738;49.532;11.156;2022-12-15T09:16:10;27.57;;;15.60;;
15273;SDS011;7738;49.532;11.156;2022-12-15T09:18:42;33.40;;;16.05;;
15273;SDS011;7738;49.532;11.156;2022-12-15T09:21:16;26.80;;;14.97;;
15273;SDS011;7738;49.532;11.156;2022-12-15T09:23:48;29.33;;;15.10;;
15273;SDS011;7738;49.532;11.156;2022-12-15T09:26:19;30.07;;;16.17;;
15273;SDS011;7738;49.532;11.156;2022-12-15T09:28:49;30.97;;;15.60;;
15273;SDS011;7738;49.532;11.156;2022-12-15T09:31:20;30.60;;;16.33;;
15273;SDS011;7738;49.532;11.156;2022-12-15T09:33:55;34.00;;;18.00;;
15273;SDS011;7738;49.532;11.156;2022-12-15T09:36:29;38.23;;;15.73;;
15273;SDS011;7738;49.532;11.156;2022-12-15T09:39:00;46.40;;;21.03;;
15273;SDS011;7738;49.532;11.156;2022-12-15T09:41:31;40.87;;;20.20;;
15273;SDS011;7738;49.532;11.156;2022-12-15T09:44:03;41.97;;;18.30;;
15273;SDS011;7738;49.532;11.156;2022-12-15T09:46:39;37.57;;;16.73;;
15273;SDS011;7738;49.532;11.156;2022-12-15T09:49:20;41.70;;;19.90;;
15273;SDS011;7738;49.532;11.156;2022-12-15T09:52:02;41.00;;;19.10;;
15273;SDS011;7738;49.532;11.156;2022-12-15T09:54:37;41.33;;;20.03;;
15273;SDS011;7738;49.532;11.156;2022-12-15T09:57:11;36.87;;;19.67;;
15273;SDS011;7738;49.532;11.156;2022-12-15T09:59:48;40.43;;;20.37;;
15273;SDS011;7738;49.532;11.156;2022-12-15T10:02:42;37.03;;;17.87;;
15273;SDS011;7738;49.532;11.156;2022-12-15T10:05:20;40.42;;;18.38;;
15273;SDS011;7738;49.532;11.156;2022-12-15T10:08:21;41.90;;;17.97;;
15273;SDS011;7738;49.532;11.156;2022-12-15T10:10:53;34.75;;;19.30;;
15273;SDS011;7738;49.532;11.156;2022-12-15T10:13:30;37.42;;;19.67;;
15273;SDS011;7738;49.532;11.156;2022-12-15T10:16:13;43.97;;;19.20;;
15273;SDS011;7738;49.532;11.156;2022-12-15T10:18:54;47.90;;;18.20;;
15273;SDS011;7738;49.532;11.156;2022-12-15T10:21:27;46.37;;;21.17;;
15273;SDS011;7738;49.532;11.156;2022-12-15T10:24:06;41.93;;;20.50;;
15273;SDS011;7738;49.532;11.156;2022-12-15T10:27:06;49.53;;;20.47;;
15273;SDS011;7738;49.532;11.156;2022-12-15T10:29:49;30.30;;;16.15;;
15273;SDS011;7738;49.532;11.156;2022-12-15T10:32:31;49.00;;;22.23;;
15273;SDS011;7738;49.532;11.156;2022-12-15T10:35:17;42.37;;;18.73;;
15273;SDS011;7738;49.532;11.156;2022-12-15T10:37:51;40.17;;;19.98;;
15273;SDS011;7738;49.532;11.156;2022-12-15T10:40:41;39.50;;;19.97;;
15273;SDS011;7738;49.532;11.156;2022-12-15T10:43:22;39.25;;;19.23;;
15273;SDS011;7738;49.532;11.156;2022-12-15T10:45:59;37.70;;;17.60;;
15273;SDS011;7738;49.532;11.156;2022-12-15T10:48:30;39.20;;;17.43;;
15273;SDS011;7738;49.532;11.156;2022-12-15T10:51:13;34.37;;;16.67;;
15273;SDS011;7738;49.532;11.156;2022-12-15T10:53:46;39.42;;;19.38;;
15273;SDS011;7738;49.532;11.156;2022-12-15T10:56:21;30.67;;;15.50;;
15273;SDS011;7738;49.532;11.156;2022-12-15T10:59:00;22.13;;;13.30;;
15273;SDS011;7738;49.532;11.156;2022-12-15T11:01:32;34.40;;;15.57;;
15273;SDS011;7738;49.532;11.156;2022-12-15T11:04:03;33.90;;;15.37;;
15273;SDS011;7738;49.532;11.156;2022-12-15T11:06:34;26.30;;;14.33;;
15273;SDS011;7738;49.532;11.156;2022-12-15T11:09:20;28.50;;;13.67;;
15273;SDS011;7738;49.532;11.156;2022-12-15T11:11:58;28.40;;;15.50;;
15273;SDS011;7738;49.532;11.156;2022-12-15T11:14:42;28.27;;;13.87;;
15273;SDS011;7738;49.532;11.156;2022-12-15T11:17:17;27.80;;;13.23;;
15273;SDS011;7738;49.532;11.156;2022-12-15T11:19:51;27.93;;;14.40;;
15273;SDS011;7738;49.532;11.156;2022-12-15T11:22:30;26.20;;;14.43;;
15273;SDS011;7738;49.532;11.156;2022-12-15T11:25:05;27.77;;;14.27;;
15273;SDS011;7738;49.532;11.156;2022-12-15T11:27:46;33.03;;;14.87;;
15273;SDS011;7738;49.532;11.156;2022-12-15T11:30:20;23.30;;;13.63;;
15273;SDS011;7738;49.532;11.156;2022-12-15T11:32:52;25.73;;;13.50;;
15273;SDS011;7738;49.532;11.156;2022-12-15T11:35:28;37.25;;;15.55;;
15273;SDS011;7738;49.532;11.156;2022-12-15T11:38:07;31.50;;;14.57;;
15273;SDS011;7738;49.532;11.156;2022-12-15T11:40:46;31.80;;;16.13;;
15273;SDS011;7738;49.532;11.156;2022-12-15T11:43:28;37.10;;;15.77;;
15273;SDS011;7738;49.532;11.156;2022-12-15T11:46:08;33.97;;;14.30;;
15273;SDS011;7738;49.532;11.156;2022-12-15T11:51:43;38.73;;;14.27;;
15273;SDS011;7738;49.532;11.156;2022-12-15T11:54:19;29.30;;;14.70;;
15273;SDS011;7738;49.532;11.156;2022-12-15T11:56:57;35.37;;;16.57;;
15273;SDS011;7738;49.532;11.156;2022-12-15T11:59:43;32.97;;;17.00;;
15273;SDS011;7738;49.532;11.156;2022-12-15T12:02:29;29.17;;;15.83;;
15273;SDS011;7738;49.532;11.156;2022-12-15T12:05:23;39.40;;;18.73;;
15273;SDS011;7738;49.532;11.156;2022-12-15T12:08:05;37.10;;;17.77;;
15273;SDS011;7738;49.532;11.156;2022-12-15T12:10:49;33.77;;;17.27;;
15273;SDS011;7738;49.532;11.156;2022-12-15T12:13:29;31.77;;;16.63;;
15273;SDS011;7738;49.532;11.156;2022-12-15T12:16:10;34.60;;;16.57;;
15273;SDS011;7738;49.532;11.156;2022-12-15T12:18:53;36.37;;;16.87;;
15273;SDS011;7738;49.532;11.156;2022-12-15T12:21:30;32.47;;;17.77;;
15273;SDS011;7738;49.532;11.156;2022-12-15T12:24:07;38.35;;;17.13;;
15273;SDS011;7738;49.532;11.156;2022-12-15T12:26:45;32.57;;;14.90;;
15273;SDS011;7738;49.532;11.156;2022-12-15T12:29:18;31.00;;;15.33;;
15273;SDS011;7738;49.532;11.156;2022-12-15T12:32:01;34.37;;;16.47;;
15273;SDS011;7738;49.532;11.156;2022-12-15T12:34:37;35.03;;;16.40;;
15273;SDS011;7738;49.532;11.156;2022-12-15T12:37:41;30.27;;;17.17;;
15273;SDS011;7738;49.532;11.156;2022-12-15T12:40:15;29.27;;;16.50;;
15273;SDS011;7738;49.532;11.156;2022-12-15T12:42:50;29.55;;;17.38;;
15273;SDS011;7738;49.532;11.156;2022-12-15T12:45:24;36.37;;;17.50;;
15273;SDS011;7738;49.532;11.156;2022-12-15T12:48:08;32.03;;;17.93;;
15273;SDS011;7738;49.532;11.156;2022-12-15T12:50:47;32.23;;;17.73;;
15273;SDS011;7738;49.532;11.156;2022-12-15T12:53:22;36.27;;;17.57;;
15273;SDS011;7738;49.532;11.156;2022-12-15T12:55:56;36.73;;;16.77;;
15273;SDS011;7738;49.532;11.156;2022-12-15T12:58:29;34.13;;;18.13;;
15273;SDS011;7738;49.532;11.156;2022-12-15T13:01:03;35.63;;;15.67;;
15273;SDS011;7738;49.532;11.156;2022-12-15T13:03:46;40.03;;;18.80;;
15273;SDS011;7738;49.532;11.156;2022-12-15T13:09:36;35.93;;;18.27;;
15273;SDS011;7738;49.532;11.156;2022-12-15T13:15:28;33.57;;;15.80;;
15273;SDS011;7738;49.532;11.156;2022-12-15T13:18:04;40.60;;;15.40;;
15273;SDS011;7738;49.532;11.156;2022-12-15T13:20:43;38.80;;;16.50;;
15273;SDS011;7738;49.532;11.156;2022-12-15T13:26:11;37.20;;;17.42;;
15273;SDS011;7738;49.532;11.156;2022-12-15T13:28:43;41.97;;;19.03;;
15273;SDS011;7738;49.532;11.156;2022-12-15T13:31:26;40.60;;;18.17;;
15273;SDS011;7738;49.532;11.156;2022-12-15T13:36:59;36.13;;;18.53;;
15273;SDS011;7738;49.532;11.156;2022-12-15T13:42:27;43.57;;;18.70;;
15273;SDS011;7738;49.532;11.156;2022-12-15T13:48:26;30.50;;;16.90;;
15273;SDS011;7738;49.532;11.156;2022-12-15T13:51:05;39.67;;;17.97;;
15273;SDS011;7738;49.532;11.156;2022-12-15T13:53:57;39.73;;;18.23;;
15273;SDS011;7738;49.532;11.156;2022-12-15T13:56:43;39.63;;;20.13;;
15273;SDS011;7738;49.532;11.156;2022-12-15T13:59:21;47.97;;;20.40;;
15273;SDS011;7738;49.532;11.156;2022-12-15T14:01:59;37.53;;;18.20;;
15273;SDS011;7738;49.532;11.156;2022-12-15T14:04:29;37.00;;;18.80;;
15273;SDS011;7738;49.532;11.156;2022-12-15T14:07:00;36.37;;;18.93;;
15273;SDS011;7738;49.532;11.156;2022-12-15T14:09:34;39.37;;;18.03;;
15273;SDS011;7738;49.532;11.156;2022-12-15T14:12:07;42.57;;;19.60;;
15273;SDS011;7738;49.532;11.156;2022-12-15T14:14:42;40.80;;;18.77;;
15273;SDS011;7738;49.532;11.156;2022-12-15T14:17:17;42.33;;;20.77;;
15273;SDS011;7738;49.532;11.156;2022-12-15T14:19:48;41.77;;;19.27;;
15273;SDS011;7738;49.532;11.156;2022-12-15T14:22:19;42.00;;;20.77;;
15273;SDS011;7738;49.532;11.156;2022-12-15T14:25:02;42.20;;;20.93;;
15273;SDS011;7738;49.532;11.156;2022-12-15T14:27:41;47.70;;;20.30;;
15273;SDS011;7738;49.532;11.156;2022-12-15T14:30:23;40.27;;;20.40;;
15273;SDS011;7738;49.532;11.156;2022-12-15T14:32:55;39.13;;;19.37;;
15273;SDS011;7738;49.532;11.156;2022-12-15T14:35:29;36.15;;;20.15;;
15273;SDS011;7738;49.532;11.156;2022-12-15T14:38:05;42.67;;;21.23;;
15273;SDS011;7738;49.532;11.156;2022-12-15T14:40:42;39.30;;;21.03;;
15273;SDS011;7738;49.532;11.156;2022-12-15T14:43:15;40.27;;;19.90;;
15273;SDS011;7738;49.532;11.156;2022-12-15T14:45:49;41.42;;;19.85;;
15273;SDS011;7738;49.532;11.156;2022-12-15T14:48:26;45.23;;;20.73;;
15273;SDS011;7738;49.532;11.156;2022-12-15T14:51:08;51.33;;;21.15;;
15273;SDS011;7738;49.532;11.156;2022-12-15T14:53:41;50.87;;;22.97;;
15273;SDS011;7738;49.532;11.156;2022-12-15T14:56:28;46.03;;;21.87;;
15273;SDS011;7738;49.532;11.156;2022-12-15T14:58:59;46.47;;;21.17;;
15273;SDS011;7738;49.532;11.156;2022-12-15T15:01:36;43.97;;;21.23;;
15273;SDS011;7738;49.532;11.156;2022-12-15T15:04:20;38.13;;;19.93;;
15273;SDS011;7738;49.532;11.156;2022-12-15T15:06:55;37.60;;;18.57;;
15273;SDS011;7738;49.532;11.156;2022-12-15T15:09:28;40.10;;;19.50;;
15273;SDS011;7738;49.532;11.156;2022-12-15T15:12:03;34.37;;;17.97;;
15273;SDS011;7738;49.532;11.156;2022-12-15T15:14:36;38.43;;;20.23;;
15273;SDS011;7738;49.532;11.156;2022-12-15T15:17:13;28.07;;;13.27;;
15273;SDS011;7738;49.532;11.156;2022-12-15T15:19:45;45.90;;;19.97;;
15273;SDS011;7738;49.532;11.156;2022-12-15T15:27:59;38.47;;;20.27;;
15273;SDS011;7738;49.532;11.156;2022-12-15T15:30:38;40.13;;;19.03;;
15273;SDS011;7738;49.532;11.156;2022-12-15T15:33:14;37.72;;;19.88;;
15273;SDS011;7738;49.532;11.156;2022-12-15T15:35:48;39.23;;;19.40;;
15273;SDS011;7738;49.532;11.156;2022-12-15T15:38:21;35.93;;;18.60;;
15273;SDS011;7738;49.532;11.156;2022-12-15T15:40:53;43.13;;;19.20;;
15273;SDS011;7738;49.532;11.156;2022-12-15T15:43:27;41.00;;;22.00;;
15273;SDS011;7738;49.532;11.156;2022-12-15T15:45:59;39.15;;;19.90;;
15273;SDS011;7738;49.532;11.156;2022-12-15T15:48:32;43.37;;;20.27;;
15273;SDS011;7738;49.532;11.156;2022-12-15T15:51:03;35.33;;;19.07;;